Plattenville, Louisiana
Current Conditions -  °F | °C
As of 5:55 PM on Saturday 22 Nov 2014 (Local Time) from KL38 Reporting Station
Overcast Overcast  
Wind Chill: 62°   Ceiling: 1900
Heat Index: 62°   Visibility: 10mi
Dew Point: 61°   Wind: 3mph
Humidity: 98%   Direction: 70°ENE
Pressure: 30"   Gusts: NA
Location:  29.99°N, 91.02°W
Report Text: KL38 222355Z AUTO 07003KT 10SM OVC019 17/16 A3000 RMK AO2 T01650162 10194 20165
Loading
Personal Weather Stations






























Interactive Weather Map New forecast layout! Learn more

10-Day Weather Forecast

Advertisements
Track Severe Weather on mobile